createdAt,value
2023-05-13T00:03:35.559Z,9.40
2023-05-13T00:08:38.790Z,6.47
2023-05-13T00:13:41.974Z,7.45
2023-05-13T00:18:46.533Z,6.45
2023-05-13T00:23:49.644Z,6.82
2023-05-13T00:28:52.694Z,6.88
2023-05-13T00:33:57.157Z,10.15
2023-05-13T00:39:00.354Z,6.57
2023-05-13T00:44:03.453Z,11.38
2023-05-13T00:49:08.179Z,12.25
2023-05-13T00:54:11.359Z,10.45
2023-05-13T00:59:14.462Z,10.65
2023-05-13T01:04:24.698Z,8.02
2023-05-13T01:09:31.730Z,7.17
2023-05-13T01:14:37.875Z,9.55
2023-05-13T01:19:43.500Z,8.23
2023-05-13T01:24:48.088Z,8.13
2023-05-13T01:29:51.532Z,9.02
2023-05-13T01:35:00.622Z,13.77
2023-05-13T01:40:14.369Z,8.98
2023-05-13T01:45:23.957Z,8.98
2023-05-13T01:50:27.591Z,10.98
2023-05-13T01:55:32.120Z,10.50
2023-05-13T02:00:37.916Z,9.55
2023-05-13T02:05:41.501Z,11.50
2023-05-13T02:10:46.432Z,14.40
2023-05-13T02:15:49.822Z,8.05
2023-05-13T02:20:52.994Z,12.80
2023-05-13T02:25:57.536Z,11.68
2023-05-13T02:31:03.654Z,12.27
2023-05-13T02:36:08.251Z,9.38
2023-05-13T02:41:13.877Z,9.68
2023-05-13T02:46:17.657Z,15.38
2023-05-13T02:51:21.607Z,12.35
2023-05-13T02:56:26.164Z,12.90
2023-05-13T03:01:29.648Z,10.63
2023-05-13T03:06:33.052Z,8.70
2023-05-13T03:11:37.600Z,12.40
2023-05-13T03:16:41.959Z,10.75
2023-05-13T03:21:45.156Z,10.13
2023-05-13T03:26:52.686Z,11.77
2023-05-13T03:31:56.044Z,12.85
2023-05-13T03:37:00.780Z,11.00
2023-05-13T03:42:07.748Z,14.55
2023-05-13T03:47:11.894Z,15.48
2023-05-13T03:52:16.659Z,9.90
2023-05-13T03:57:22.891Z,11.55
2023-05-13T04:02:26.203Z,14.00
2023-05-13T04:07:29.528Z,10.18
2023-05-13T04:12:34.323Z,12.00
2023-05-13T04:17:37.479Z,10.57
2023-05-13T04:22:40.705Z,10.75
2023-05-13T04:27:47.361Z,11.38
2023-05-13T04:33:01.325Z,11.57
2023-05-13T04:38:05.349Z,16.38
2023-05-13T04:43:10.027Z,14.10
2023-05-13T04:48:20.132Z,14.05
2023-05-13T04:53:23.310Z,14.20
2023-05-13T04:58:29.580Z,16.00
2023-05-13T05:03:33.249Z,16.48
2023-05-13T05:08:36.666Z,18.55
2023-05-13T05:13:41.408Z,16.02
2023-05-13T05:18:44.682Z,14.57
2023-05-13T05:23:48.099Z,16.13
2023-05-13T05:28:52.932Z,16.05
2023-05-13T05:33:56.587Z,15.80
2023-05-13T05:38:59.940Z,13.93
2023-05-13T05:44:10.173Z,12.50
2023-05-13T05:49:13.562Z,14.38
2023-05-13T05:54:16.698Z,15.07
2023-05-13T05:59:21.198Z,15.32
2023-05-13T06:04:25.218Z,14.30
2023-05-13T06:09:28.795Z,12.57
2023-05-13T06:14:33.453Z,16.73
2023-05-13T06:19:36.517Z,16.15
2023-05-13T06:24:42.631Z,11.73
2023-05-13T06:29:47.226Z,11.70
2023-05-13T06:34:54.519Z,12.98
2023-05-13T06:40:00.161Z,13.25
2023-05-13T06:45:05.016Z,11.77
2023-05-13T06:50:08.453Z,12.57
2023-05-13T06:55:13.140Z,11.32
2023-05-13T07:00:18.255Z,14.35
2023-05-13T07:05:21.430Z,9.73
2023-05-13T07:10:24.786Z,11.07
2023-05-13T07:15:29.314Z,9.75
2023-05-13T07:20:32.386Z,13.70
2023-05-13T07:25:35.595Z,9.77
2023-05-13T07:30:42.173Z,11.43
2023-05-13T07:35:45.320Z,10.90
2023-05-13T07:40:48.446Z,9.85
2023-05-13T07:45:52.917Z,8.93
2023-05-13T07:50:57.745Z,13.30
2023-05-13T07:56:01.004Z,10.70
2023-05-13T08:01:06.094Z,8.32
2023-05-13T08:06:09.375Z,9.48
2023-05-13T08:11:13.492Z,10.05
2023-05-13T08:16:18.006Z,9.20
2023-05-13T08:21:21.125Z,10.02
2023-05-13T08:26:24.347Z,7.53
2023-05-13T08:31:29.153Z,9.50
2023-05-13T08:36:32.308Z,8.80
2023-05-13T08:41:35.884Z,10.50
2023-05-13T08:46:42.455Z,8.63
2023-05-13T08:51:46.691Z,8.30
2023-05-13T08:56:51.293Z,12.88
2023-05-13T09:01:56.524Z,8.02
2023-05-13T09:06:59.968Z,7.82
2023-05-13T09:12:03.499Z,7.25
2023-05-13T09:17:08.649Z,10.60
2023-05-13T09:22:18.049Z,8.63
2023-05-13T09:27:24.591Z,7.43
2023-05-13T09:32:29.355Z,9.73
2023-05-13T09:37:32.551Z,6.38
2023-05-13T09:42:35.650Z,8.23
2023-05-13T09:47:40.362Z,7.68
2023-05-13T09:52:43.618Z,9.63
2023-05-13T09:57:47.098Z,11.45
2023-05-13T10:02:51.710Z,7.95
2023-05-13T10:07:55.105Z,11.55
2023-05-13T10:12:59.317Z,6.78
2023-05-13T10:18:06.652Z,8.15
2023-05-13T10:23:11.223Z,6.95
2023-05-13T10:28:15.047Z,11.65
2023-05-13T10:33:19.771Z,6.22
2023-05-13T10:38:26.786Z,8.63
2023-05-13T10:43:30.660Z,9.20
2023-05-13T10:48:43.248Z,9.93
2023-05-13T10:53:48.171Z,8.90
2023-05-13T10:59:08.975Z,5.68
2023-05-13T11:04:15.660Z,6.43
2023-05-13T11:09:31.279Z,10.45
2023-05-13T11:14:34.392Z,7.18
2023-05-13T11:19:39.628Z,7.07
2023-05-13T11:24:45.445Z,7.03
2023-05-13T11:29:52.299Z,7.47
2023-05-13T11:34:57.129Z,7.90
2023-05-13T11:40:00.523Z,9.70
2023-05-13T11:45:03.730Z,11.15
2023-05-13T11:50:19.632Z,10.38
2023-05-13T11:55:25.739Z,7.45
2023-05-13T12:00:29.791Z,6.78
2023-05-13T12:05:34.300Z,7.95
2023-05-13T12:10:43.336Z,12.15
2023-05-13T12:15:46.671Z,5.80
2023-05-13T12:20:51.580Z,7.65
2023-05-13T12:25:54.920Z,6.47
2023-05-13T12:30:58.956Z,7.75
2023-05-13T12:36:21.196Z,9.15
2023-05-13T12:41:25.907Z,7.57
2023-05-13T12:46:29.739Z,13.30
2023-05-13T12:51:34.834Z,10.93
2023-05-13T12:56:40.052Z,9.38
2023-05-13T13:01:43.396Z,5.55
2023-05-13T13:06:48.068Z,6.75
2023-05-13T13:11:52.565Z,8.63
2023-05-13T13:16:55.809Z,4.95
2023-05-13T13:22:00.290Z,6.78
2023-05-13T13:27:03.478Z,6.93
2023-05-13T13:32:07.041Z,11.32
2023-05-13T13:37:11.641Z,9.15
2023-05-13T13:42:14.740Z,10.07
2023-05-13T13:47:17.966Z,7.57
2023-05-13T13:52:24.597Z,5.55
2023-05-13T13:57:27.742Z,6.68
2023-05-13T14:02:30.962Z,6.30
2023-05-13T14:07:35.893Z,7.88
2023-05-13T14:12:39.333Z,7.32
2023-05-13T14:17:42.573Z,8.77
2023-05-13T14:22:47.020Z,7.30
2023-05-13T14:27:50.139Z,6.85
2023-05-13T14:32:53.338Z,8.75
2023-05-13T14:37:57.893Z,8.18
2023-05-13T14:43:01.043Z,4.82
2023-05-13T14:48:04.279Z,6.68
2023-05-13T14:53:08.842Z,6.72
2023-05-13T14:58:12.823Z,7.80
2023-05-13T15:03:16.763Z,6.90
2023-05-13T15:08:21.470Z,8.85
2023-05-13T15:13:24.786Z,7.80
2023-05-13T15:18:27.951Z,7.53
2023-05-13T15:23:32.568Z,8.93
2023-05-13T15:28:35.692Z,6.93
2023-05-13T15:33:39.101Z,6.72
2023-05-13T15:38:43.835Z,6.65
2023-05-13T15:43:46.953Z,10.52
2023-05-13T15:48:50.131Z,9.20
2023-05-13T15:53:54.810Z,11.20
2023-05-13T15:58:57.899Z,6.05
2023-05-13T16:04:01.028Z,5.82
2023-05-13T16:09:05.661Z,5.90
2023-05-13T16:14:08.817Z,10.63
2023-05-13T16:19:12.082Z,6.88
2023-05-13T16:24:16.591Z,5.65
2023-05-13T16:29:19.734Z,11.52
2023-05-13T16:34:22.845Z,8.90
2023-05-13T16:39:27.283Z,6.82
2023-05-13T16:44:30.647Z,10.88
2023-05-13T16:49:33.988Z,9.68
2023-05-13T16:54:38.472Z,5.43
2023-05-13T16:59:41.596Z,9.75
2023-05-13T17:04:44.703Z,9.77
2023-05-13T17:09:49.219Z,9.27
2023-05-13T17:14:52.318Z,11.80
2023-05-13T17:19:55.593Z,7.10
2023-05-13T17:25:00.210Z,6.30
2023-05-13T17:30:03.529Z,7.43
2023-05-13T17:35:07.547Z,7.63
2023-05-13T17:40:12.649Z,6.40
2023-05-13T17:45:15.831Z,8.52
2023-05-13T17:50:19.151Z,9.63
2023-05-13T17:55:23.687Z,5.22
2023-05-13T18:00:27.092Z,7.05
2023-05-13T18:05:30.836Z,6.88
2023-05-13T18:10:35.593Z,7.40
2023-05-13T18:15:38.967Z,8.57
2023-05-13T18:20:42.157Z,9.02
2023-05-13T18:25:55.168Z,7.90
2023-05-13T18:30:59.208Z,9.65
2023-05-13T18:36:02.801Z,6.10
2023-05-13T18:41:07.388Z,7.18
2023-05-13T18:46:10.715Z,9.98
2023-05-13T18:51:14.476Z,7.63
2023-05-13T18:56:19.119Z,7.10
2023-05-13T19:01:22.278Z,5.63
2023-05-13T19:06:25.523Z,6.55
2023-05-13T19:11:29.972Z,10.45
2023-05-13T19:16:33.213Z,7.68
2023-05-13T19:21:36.630Z,11.45
2023-05-13T19:26:41.186Z,9.10
2023-05-13T19:31:45.159Z,8.90
2023-05-13T19:36:48.342Z,5.32
2023-05-13T19:41:52.831Z,8.98
2023-05-13T19:46:56.626Z,10.93
2023-05-13T19:51:59.891Z,11.88
2023-05-13T19:57:04.347Z,13.85
2023-05-13T20:02:07.591Z,7.90
2023-05-13T20:07:10.848Z,10.60
2023-05-13T20:12:15.306Z,11.40
2023-05-13T20:17:19.513Z,12.15
2023-05-13T20:22:22.932Z,8.52
2023-05-13T20:27:27.450Z,13.95
2023-05-13T20:32:31.040Z,9.40
2023-05-13T20:37:34.148Z,9.30
2023-05-13T20:42:38.729Z,11.38
2023-05-13T20:47:42.045Z,10.15
2023-05-13T20:52:45.290Z,7.05
2023-05-13T20:57:49.904Z,7.28
2023-05-13T21:02:54.021Z,10.35
2023-05-13T21:07:57.177Z,10.45
2023-05-13T21:13:01.865Z,8.75
2023-05-13T21:18:05.275Z,11.50
2023-05-13T21:23:08.379Z,8.73
2023-05-13T21:28:12.922Z,10.13
2023-05-13T21:33:16.869Z,10.57
2023-05-13T21:38:21.163Z,11.85
2023-05-13T21:43:25.660Z,11.43
2023-05-13T21:48:28.868Z,10.20
2023-05-13T21:53:32.064Z,11.98
2023-05-13T21:58:36.535Z,12.30
2023-05-13T22:03:39.769Z,8.02
2023-05-13T22:08:43.012Z,11.43
2023-05-13T22:13:47.489Z,9.90
2023-05-13T22:18:51.062Z,8.85
2023-05-13T22:23:54.260Z,13.35
2023-05-13T22:28:58.815Z,11.02
2023-05-13T22:34:01.983Z,12.32
2023-05-13T22:39:05.110Z,11.32
2023-05-13T22:44:10.192Z,10.57
2023-05-13T22:49:13.335Z,10.43
2023-05-13T22:54:16.574Z,13.40
2023-05-13T22:59:21.120Z,14.95
2023-05-13T23:04:24.351Z,14.27
2023-05-13T23:09:27.637Z,15.20
2023-05-13T23:14:32.173Z,13.63
2023-05-13T23:19:35.403Z,13.80
2023-05-13T23:24:38.547Z,14.23
2023-05-13T23:29:43.118Z,18.60
2023-05-13T23:34:46.356Z,16.05
2023-05-13T23:39:49.542Z,18.00
2023-05-13T23:44:54.006Z,14.88
2023-05-13T23:49:58.040Z,15.80
2023-05-13T23:55:01.446Z,13.77
